createdAt,value
2023-05-06T00:02:29.648Z,99954.94
2023-05-06T00:07:31.966Z,99968.34
2023-05-06T00:12:34.173Z,99963.69
2023-05-06T00:17:36.373Z,99954.97
2023-05-06T00:22:38.691Z,99978.63
2023-05-06T00:27:40.800Z,99971.31
2023-05-06T00:32:43.006Z,99965.81
2023-05-06T00:37:49.186Z,99967.09
2023-05-06T00:42:51.359Z,99946.03
2023-05-06T00:47:53.810Z,99972.59
2023-05-06T00:52:58.183Z,99977.19
2023-05-06T00:58:01.155Z,99980.22
2023-05-06T01:03:03.466Z,99981.53
2023-05-06T01:08:11.690Z,99979.22
2023-05-06T01:13:36.721Z,99987.34
2023-05-06T01:18:39.173Z,99989.69
2023-05-06T01:23:58.492Z,99978.81
2023-05-06T01:29:02.497Z,99985.72
2023-05-06T01:34:11.166Z,99981.25
2023-05-06T01:39:18.959Z,99997.97
2023-05-06T01:44:23.542Z,99996.59
2023-05-06T01:49:27.604Z,99996.72
2023-05-06T01:54:29.674Z,99989.59
2023-05-06T01:59:31.683Z,99998.06
2023-05-06T02:04:33.978Z,100001.41
2023-05-06T02:09:36.314Z,100005.69
2023-05-06T02:14:38.998Z,100002.25
2023-05-06T02:19:41.438Z,100014.19
2023-05-06T02:24:43.562Z,100009.34
2023-05-06T02:29:46.824Z,100010.41
2023-05-06T02:34:48.934Z,100014.63
2023-05-06T02:39:51.060Z,100020.25
2023-05-06T02:44:53.066Z,100024.03
2023-05-06T02:49:55.302Z,100030.94
2023-05-06T02:54:57.418Z,100028.44
2023-05-06T02:59:59.631Z,100028.28
2023-05-06T03:05:04.560Z,100036.22
2023-05-06T03:10:08.139Z,100038.44
2023-05-06T03:15:12.924Z,100032.97
2023-05-06T03:20:15.665Z,100049.31
2023-05-06T03:25:24.376Z,100048.47
2023-05-06T03:30:27.612Z,100047.75
2023-05-06T03:35:33.627Z,100057.81
2023-05-06T03:40:36.702Z,100063.00
2023-05-06T03:45:39.321Z,100050.91
2023-05-06T03:50:42.236Z,100041.00
2023-05-06T03:55:44.462Z,100049.59
2023-05-06T04:00:47.870Z,100046.38
2023-05-06T04:05:51.007Z,100056.63
2023-05-06T04:10:57.750Z,100053.06
2023-05-06T04:16:04.280Z,100064.03
2023-05-06T04:21:13.670Z,100064.44
2023-05-06T04:26:18.358Z,100069.81
2023-05-06T04:31:21.749Z,100061.78
2023-05-06T04:36:25.850Z,100077.00
2023-05-06T04:41:48.954Z,100084.81
2023-05-06T04:46:56.181Z,100078.34
2023-05-06T04:51:58.430Z,100092.09
2023-05-06T04:57:01.817Z,100081.84
2023-05-06T05:02:04.958Z,100081.28
2023-05-06T05:07:07.707Z,100081.59
2023-05-06T05:12:10.901Z,100052.91
2023-05-06T05:17:17.248Z,100071.84
2023-05-06T05:22:21.447Z,100070.97
2023-05-06T05:27:23.867Z,100077.25
2023-05-06T05:32:27.039Z,100071.78
2023-05-06T05:37:29.125Z,100073.59
2023-05-06T05:42:33.821Z,100073.13
2023-05-06T05:47:41.045Z,100086.72
2023-05-06T05:52:43.552Z,100081.13
2023-05-06T05:57:46.169Z,100082.94
2023-05-06T06:02:48.790Z,100100.25
2023-05-06T06:07:55.006Z,100103.44
2023-05-06T06:12:59.254Z,100105.88
2023-05-06T06:18:04.350Z,100105.66
2023-05-06T06:23:06.833Z,100096.00
2023-05-06T06:28:10.184Z,100103.03
2023-05-06T06:33:12.687Z,100121.91
2023-05-06T06:38:15.607Z,100122.03
2023-05-06T06:43:19.939Z,100123.28
2023-05-06T06:48:31.823Z,100129.59
2023-05-06T06:53:33.839Z,100135.19
2023-05-06T06:58:35.838Z,100139.88
2023-05-06T07:03:37.734Z,100130.03
2023-05-06T07:08:39.750Z,100144.78
2023-05-06T07:13:41.877Z,100147.72
2023-05-06T07:18:43.779Z,100144.13
2023-05-06T07:23:46.042Z,100160.59
2023-05-06T07:28:48.210Z,100155.13
2023-05-06T07:33:50.480Z,100158.00
2023-05-06T07:38:52.438Z,100164.84
2023-05-06T07:43:54.507Z,100161.19
2023-05-06T07:48:56.615Z,100162.31
2023-05-06T07:53:58.642Z,100167.84
2023-05-06T07:59:00.756Z,100165.31
2023-05-06T08:04:02.950Z,100159.91
2023-05-06T08:09:05.467Z,100162.25
2023-05-06T08:14:07.557Z,100171.97
2023-05-06T08:19:09.406Z,100157.69
2023-05-06T08:24:13.677Z,100178.44
2023-05-06T08:29:16.013Z,100159.75
2023-05-06T08:34:20.289Z,100165.19
2023-05-06T08:39:22.268Z,100154.06
2023-05-06T08:44:25.424Z,100159.16
2023-05-06T08:49:27.890Z,100152.38
2023-05-06T08:54:33.495Z,100173.44
2023-05-06T08:59:36.369Z,100162.38
2023-05-06T09:04:38.713Z,100159.78
2023-05-06T09:09:40.967Z,100151.84
2023-05-06T09:14:43.374Z,100145.09
2023-05-06T09:19:45.475Z,100146.75
2023-05-06T09:24:53.113Z,100145.38
2023-05-06T09:30:09.441Z,100148.34
2023-05-06T09:35:13.692Z,100159.44
2023-05-06T09:40:15.953Z,100137.41
2023-05-06T09:45:18.091Z,100160.75
2023-05-06T09:50:22.223Z,100165.78
2023-05-06T09:55:27.238Z,100157.34
2023-05-06T10:00:31.450Z,100163.81
2023-05-06T10:05:34.135Z,100154.41
2023-05-06T10:10:37.960Z,100158.56
2023-05-06T10:15:41.153Z,100155.13
2023-05-06T10:20:44.468Z,100154.50
2023-05-06T10:25:49.396Z,100136.72
2023-05-06T10:30:53.309Z,100139.34
2023-05-06T10:36:24.063Z,100141.25
2023-05-06T10:41:28.444Z,100130.72
2023-05-06T10:46:30.859Z,100134.72
2023-05-06T10:51:33.899Z,100147.34
2023-05-06T10:56:40.127Z,100142.63
2023-05-06T11:01:44.450Z,100131.75
2023-05-06T11:06:49.318Z,100144.28
2023-05-06T11:11:52.013Z,100140.00
2023-05-06T11:16:56.926Z,100160.97
2023-05-06T11:22:01.202Z,100156.19
2023-05-06T11:27:03.377Z,100149.09
2023-05-06T11:32:05.743Z,100138.44
2023-05-06T11:37:08.520Z,100149.94
2023-05-06T11:42:10.561Z,100143.53
2023-05-06T11:47:12.554Z,100135.47
2023-05-06T11:52:14.590Z,100148.28
2023-05-06T11:57:16.597Z,100153.53
2023-05-06T12:02:18.576Z,100152.13
2023-05-06T12:07:20.851Z,100168.84
2023-05-06T12:12:24.185Z,100172.25
2023-05-06T12:17:26.540Z,100154.69
2023-05-06T12:22:28.672Z,100162.34
2023-05-06T12:27:31.473Z,100179.66
2023-05-06T12:32:33.497Z,100154.78
2023-05-06T12:37:35.689Z,100161.41
2023-05-06T12:42:37.888Z,100162.50
2023-05-06T12:47:40.106Z,100176.13
2023-05-06T12:52:45.259Z,100173.56
2023-05-06T12:57:48.474Z,100157.75
2023-05-06T13:02:50.733Z,100173.16
2023-05-06T13:07:54.082Z,100171.59
2023-05-06T13:12:56.219Z,100165.59
2023-05-06T13:17:58.415Z,100160.16
2023-05-06T13:23:00.328Z,100186.03
2023-05-06T13:28:02.608Z,100168.06
2023-05-06T13:33:05.264Z,100189.56
2023-05-06T13:38:07.594Z,100186.28
2023-05-06T13:43:10.131Z,100192.44
2023-05-06T13:48:13.173Z,100197.44
2023-05-06T13:53:15.588Z,100183.47
2023-05-06T13:58:17.859Z,100194.09
2023-05-06T14:03:20.013Z,100189.28
2023-05-06T14:08:21.920Z,100187.94
2023-05-06T14:13:24.157Z,100192.13
2023-05-06T14:18:29.593Z,100191.31
2023-05-06T14:23:32.612Z,100206.59
2023-05-06T14:28:34.615Z,100200.41
2023-05-06T14:33:37.724Z,100200.94
2023-05-06T14:38:39.734Z,100208.22
2023-05-06T14:43:41.669Z,100201.81
2023-05-06T14:48:44.553Z,100218.63
2023-05-06T14:53:46.851Z,100202.56
2023-05-06T14:58:48.872Z,100200.16
2023-05-06T15:03:53.224Z,100196.81
2023-05-06T15:08:55.480Z,100215.16
2023-05-06T15:13:57.402Z,100213.72
2023-05-06T15:18:59.501Z,100215.94
2023-05-06T15:24:01.806Z,100207.25
2023-05-06T15:29:04.037Z,100211.56
2023-05-06T15:34:09.842Z,100214.59
2023-05-06T15:39:12.869Z,100202.56
2023-05-06T15:44:16.206Z,100205.53
2023-05-06T15:49:47.487Z,100202.50
2023-05-06T15:54:41.165Z,100202.94
2023-05-06T15:59:43.364Z,100206.97
2023-05-06T16:04:45.545Z,100205.72
2023-05-06T16:09:47.765Z,100215.66
2023-05-06T16:14:49.639Z,100215.38
2023-05-06T16:19:51.597Z,100216.84
2023-05-06T16:24:53.468Z,100223.47
2023-05-06T16:29:55.820Z,100217.22
2023-05-06T16:34:59.434Z,100208.81
2023-05-06T16:40:01.692Z,100244.78
2023-05-06T16:45:07.636Z,100229.59
2023-05-06T16:50:10.747Z,100252.47
2023-05-06T16:55:13.041Z,100254.94
2023-05-06T17:00:16.582Z,100265.22
2023-05-06T17:05:20.640Z,100261.44
2023-05-06T17:10:29.206Z,100272.78
2023-05-06T17:15:31.439Z,100265.34
2023-05-06T17:20:38.050Z,100282.47
2023-05-06T17:25:49.991Z,100290.56
2023-05-06T17:30:51.971Z,100293.09
2023-05-06T17:35:53.931Z,100295.13
2023-05-06T17:40:55.823Z,100304.88
2023-05-06T17:45:57.907Z,100307.19
2023-05-06T17:51:01.878Z,100310.50
2023-05-06T17:56:04.713Z,100310.91
2023-05-06T18:01:06.808Z,100320.03
2023-05-06T18:06:08.869Z,100312.56
2023-05-06T18:11:11.040Z,100315.13
2023-05-06T18:16:13.107Z,100317.75
2023-05-06T18:21:15.578Z,100323.97
2023-05-06T18:26:35.001Z,100318.59
2023-05-06T18:31:40.638Z,100318.38
2023-05-06T18:36:42.848Z,100317.28
2023-05-06T18:41:44.902Z,100329.09
2023-05-06T18:46:46.951Z,100326.13
2023-05-06T18:51:49.046Z,100325.66
2023-05-06T18:56:54.938Z,100328.50
2023-05-06T19:01:56.996Z,100341.97
2023-05-06T19:06:59.100Z,100342.59
2023-05-06T19:12:01.111Z,100325.34
2023-05-06T19:17:04.766Z,100329.66
2023-05-06T19:22:07.009Z,100348.63
2023-05-06T19:27:09.177Z,100339.63
2023-05-06T19:32:11.309Z,100345.22
2023-05-06T19:37:13.402Z,100344.97
2023-05-06T19:42:15.913Z,100355.06
2023-05-06T19:47:17.984Z,100352.06
2023-05-06T19:52:20.072Z,100349.19
2023-05-06T19:57:22.219Z,100353.91
2023-05-06T20:02:24.470Z,100347.22
2023-05-06T20:07:26.670Z,100355.44
2023-05-06T20:12:29.053Z,100346.34
2023-05-06T20:17:31.156Z,100346.56
2023-05-06T20:22:33.170Z,100351.41
2023-05-06T20:27:35.364Z,100348.28
2023-05-06T20:32:39.074Z,100350.81
2023-05-06T20:37:41.467Z,100341.91
2023-05-06T20:42:43.518Z,100348.31
2023-05-06T20:47:45.726Z,100349.47
2023-05-06T20:52:47.841Z,100352.66
2023-05-06T20:57:50.096Z,100348.47
2023-05-06T21:02:52.336Z,100349.63
2023-05-06T21:07:54.511Z,100360.31
2023-05-06T21:12:56.584Z,100360.66
2023-05-06T21:17:58.737Z,100365.16
2023-05-06T21:23:00.971Z,100371.66
2023-05-06T21:28:05.553Z,100378.06
2023-05-06T21:33:10.994Z,100381.09
2023-05-06T21:38:13.131Z,100364.88
2023-05-06T21:43:17.957Z,100372.00
2023-05-06T21:48:20.039Z,100375.97
2023-05-06T21:53:22.058Z,100370.09
2023-05-06T21:58:24.132Z,100369.47
2023-05-06T22:03:27.786Z,100370.44
2023-05-06T22:08:30.118Z,100375.44
2023-05-06T22:13:32.351Z,100380.06
2023-05-06T22:18:36.098Z,100385.50
2023-05-06T22:23:40.680Z,100376.06
2023-05-06T22:28:42.705Z,100383.31
2023-05-06T22:33:44.787Z,100385.38
2023-05-06T22:38:47.186Z,100382.88
2023-05-06T22:43:49.173Z,100387.38
2023-05-06T22:48:51.286Z,100373.44
2023-05-06T22:53:53.398Z,100380.84
2023-05-06T22:58:55.424Z,100381.38
2023-05-06T23:03:59.072Z,100403.16
2023-05-06T23:09:02.249Z,100402.81
2023-05-06T23:14:04.680Z,100399.03
2023-05-06T23:19:06.816Z,100378.25
2023-05-06T23:24:09.070Z,100402.97
2023-05-06T23:29:11.139Z,100405.03
2023-05-06T23:34:13.304Z,100413.09
2023-05-06T23:39:15.442Z,100408.19
2023-05-06T23:44:17.547Z,100409.31
2023-05-06T23:49:19.783Z,100409.41
2023-05-06T23:54:21.836Z,100415.84
2023-05-06T23:59:23.903Z,100416.03
